Terminal Aerodrome Forecast
Issued by NWS

Home | Current Version | Previous Version | Graphics & Text | Print | Product List | Glossary On
Versions: 1 2 3 4 5 6 7 8 9 10 11 12 13 14 15 16 17 18 19 20 21 22 23 24 25 26 27 28
000
FTUS43 KLOT 270304 AAA
TAFMDW
TAF AMD
KMDW 270304Z 2703/2724 05008KT P6SM FEW006 SCT012 BKN025
     FM270600 02005KT 6SM BR FEW006 SCT025 BKN050
     FM271300 08006KT P6SM SCT150
     FM271900 08010KT P6SM SCT040=

USA.gov is the U.S. government's official web portal to all federal, state and local government web resources and services.